createdAt,value
2019-03-31T00:01:12.490Z,-84
2019-03-31T00:03:45.124Z,-84
2019-03-31T00:06:17.803Z,-83
2019-03-31T00:08:50.426Z,-84
2019-03-31T00:11:23.105Z,-83
2019-03-31T00:13:55.992Z,-83
2019-03-31T00:16:28.662Z,-83
2019-03-31T00:19:01.282Z,-85
2019-03-31T00:21:34.087Z,-83
2019-03-31T00:24:07.017Z,-84
2019-03-31T00:26:39.974Z,-83
2019-03-31T00:29:12.608Z,-83
2019-03-31T00:31:45.264Z,-84
2019-03-31T00:34:17.883Z,-84
2019-03-31T00:36:50.853Z,-82
2019-03-31T00:39:23.782Z,-84
2019-03-31T00:41:56.786Z,-85
2019-03-31T00:44:29.669Z,-85
2019-03-31T00:47:02.551Z,-86
2019-03-31T00:49:35.270Z,-84
2019-03-31T00:52:08.220Z,-82
2019-03-31T00:54:41.171Z,-85
2019-03-31T00:57:13.840Z,-83
2019-03-31T00:59:46.727Z,-82
2019-03-31T01:02:22.982Z,-84
2019-03-31T01:04:55.904Z,-83
2019-03-31T01:07:28.782Z,-85
2019-03-31T01:10:01.612Z,-83
2019-03-31T01:12:34.610Z,-84
2019-03-31T01:15:12.132Z,-83
2019-03-31T01:17:45.525Z,-83
2019-03-31T01:20:18.147Z,-84
2019-03-31T01:22:50.804Z,-84
2019-03-31T01:25:23.518Z,-83
2019-03-31T01:27:56.292Z,-84
2019-03-31T01:30:28.919Z,-84
2019-03-31T01:33:02.198Z,-84
2019-03-31T01:35:34.883Z,-84
2019-03-31T01:38:07.556Z,-83
2019-03-31T01:40:41.097Z,-84
2019-03-31T01:43:14.373Z,-84
2019-03-31T01:45:47.295Z,-84
2019-03-31T01:48:20.191Z,-84
2019-03-31T01:50:52.807Z,-83
2019-03-31T01:53:25.812Z,-83
2019-03-31T01:55:58.434Z,-83
2019-03-31T01:58:31.104Z,-83
2019-03-31T02:01:06.005Z,-84
2019-03-31T02:03:38.661Z,-85
2019-03-31T02:06:11.294Z,-84
2019-03-31T02:08:44.755Z,-86
2019-03-31T02:11:17.738Z,-83
2019-03-31T02:13:50.423Z,-83
2019-03-31T02:16:23.039Z,-85
2019-03-31T02:18:56.011Z,-83
2019-03-31T02:21:28.883Z,-82
2019-03-31T02:24:01.558Z,-84
2019-03-31T02:26:35.067Z,-85
2019-03-31T02:29:08.017Z,-83
2019-03-31T02:31:40.643Z,-83
2019-03-31T02:34:13.316Z,-84
2019-03-31T02:36:46.231Z,-83
2019-03-31T02:39:18.877Z,-84
2019-03-31T02:41:51.801Z,-83
2019-03-31T02:44:24.451Z,-83
2019-03-31T02:46:57.082Z,-84
2019-03-31T02:49:29.713Z,-84
2019-03-31T02:52:02.439Z,-84
2019-03-31T02:54:35.358Z,-84
2019-03-31T02:57:08.597Z,-83
2019-03-31T02:59:42.196Z,-83
2019-03-31T03:02:16.044Z,-82
2019-03-31T03:04:49.699Z,-82
2019-03-31T03:07:22.825Z,-82
2019-03-31T03:09:55.545Z,-82
2019-03-31T03:12:28.191Z,-83
2019-03-31T03:15:02.070Z,-82
2019-03-31T03:17:34.720Z,-82
2019-03-31T03:20:07.745Z,-84
2019-03-31T03:22:40.419Z,-84
2019-03-31T03:25:13.119Z,-83
2019-03-31T03:27:45.826Z,-82
2019-03-31T03:30:19.356Z,-83
2019-03-31T03:33:13.654Z,-85
2019-03-31T03:35:26.316Z,-83
2019-03-31T03:37:58.940Z,-84
2019-03-31T03:40:31.925Z,-83
2019-03-31T03:43:04.905Z,-84
2019-03-31T03:45:37.712Z,-84
2019-03-31T03:48:10.661Z,-85
2019-03-31T03:50:43.305Z,-85
2019-03-31T03:53:15.909Z,-83
2019-03-31T03:55:48.864Z,-86
2019-03-31T03:58:21.543Z,-83
2019-03-31T04:00:54.194Z,-83
2019-03-31T04:03:30.584Z,-82
2019-03-31T04:06:01.529Z,-85
2019-03-31T04:08:34.442Z,-84
2019-03-31T04:11:24.252Z,-83
2019-03-31T04:13:56.949Z,-83
2019-03-31T04:16:29.752Z,-83
2019-03-31T04:19:02.828Z,-84
2019-03-31T04:21:35.495Z,-85
2019-03-31T04:24:08.113Z,-83
2019-03-31T04:26:41.117Z,-84
2019-03-31T04:29:13.808Z,-86
2019-03-31T04:31:48.849Z,-84
2019-03-31T04:34:21.154Z,-83
2019-03-31T04:36:53.817Z,-84
2019-03-31T04:39:26.443Z,-86
2019-03-31T04:41:59.257Z,-84
2019-03-31T04:44:31.872Z,-84
2019-03-31T04:47:05.167Z,-85
2019-03-31T04:49:37.779Z,-85
2019-03-31T04:52:10.392Z,-85
2019-03-31T04:54:43.005Z,-85
2019-03-31T04:57:16.222Z,-85
2019-03-31T04:59:49.114Z,-84
2019-03-31T05:02:22.067Z,-84
2019-03-31T05:04:54.991Z,-84
2019-03-31T05:07:28.550Z,-84
2019-03-31T05:10:01.525Z,-84
2019-03-31T05:12:34.186Z,-84
2019-03-31T05:15:07.730Z,-84
2019-03-31T05:17:40.773Z,-84
2019-03-31T05:20:13.431Z,-84
2019-03-31T05:22:46.468Z,-84
2019-03-31T05:25:19.475Z,-85
2019-03-31T05:27:52.507Z,-84
2019-03-31T05:30:25.121Z,-84
2019-03-31T05:32:58.131Z,-84
2019-03-31T05:35:30.811Z,-84
2019-03-31T05:38:03.492Z,-84
2019-03-31T05:40:36.250Z,-84
2019-03-31T05:43:09.239Z,-84
2019-03-31T05:45:42.198Z,-84
2019-03-31T05:48:14.807Z,-84
2019-03-31T05:50:47.784Z,-84
2019-03-31T05:53:20.681Z,-84
2019-03-31T05:55:53.342Z,-85
2019-03-31T05:58:25.956Z,-84
2019-03-31T06:00:58.602Z,-84
2019-03-31T06:03:31.193Z,-85
2019-03-31T06:06:04.121Z,-84
2019-03-31T06:08:36.741Z,-84
2019-03-31T06:11:09.671Z,-84
2019-03-31T06:13:43.116Z,-85
2019-03-31T06:16:15.773Z,-84
2019-03-31T06:18:49.561Z,-85
2019-03-31T06:21:22.211Z,-84
2019-03-31T06:23:55.192Z,-83
2019-03-31T06:26:27.872Z,-84
2019-03-31T06:29:00.498Z,-85
2019-03-31T06:31:33.443Z,-86
2019-03-31T06:34:06.339Z,-86
2019-03-31T06:36:39.026Z,-84
2019-03-31T06:39:11.671Z,-84
2019-03-31T06:41:44.691Z,-84
2019-03-31T06:44:17.323Z,-84
2019-03-31T06:46:50.002Z,-85
2019-03-31T06:49:22.652Z,-85
2019-03-31T06:51:55.317Z,-85
2019-03-31T06:54:28.341Z,-85
2019-03-31T06:57:01.025Z,-85
2019-03-31T06:59:34.099Z,-85
2019-03-31T07:02:08.265Z,-85
2019-03-31T07:04:41.010Z,-86
2019-03-31T07:07:13.990Z,-85
2019-03-31T07:09:46.745Z,-85
2019-03-31T07:12:19.375Z,-84
2019-03-31T07:14:52.077Z,-84
2019-03-31T07:17:24.749Z,-84
2019-03-31T07:19:57.444Z,-87
2019-03-31T07:22:30.364Z,-86
2019-03-31T07:25:03.045Z,-86
2019-03-31T07:27:36.333Z,-84
2019-03-31T07:30:11.285Z,-84
2019-03-31T07:32:44.320Z,-85
2019-03-31T07:35:18.954Z,-86
2019-03-31T07:37:51.793Z,-84
2019-03-31T07:40:24.893Z,-85
2019-03-31T07:42:57.689Z,-85
2019-03-31T07:45:30.496Z,-85
2019-03-31T07:48:03.189Z,-85
2019-03-31T07:50:36.224Z,-83
2019-03-31T07:53:09.291Z,-83
2019-03-31T07:55:41.994Z,-84
2019-03-31T07:58:14.806Z,-84
2019-03-31T08:00:47.515Z,-85
2019-03-31T08:03:20.182Z,-85
2019-03-31T08:05:53.357Z,-86
2019-03-31T08:08:26.118Z,-87
2019-03-31T08:10:59.368Z,-87
2019-03-31T08:13:32.035Z,-86
2019-03-31T08:16:04.795Z,-87
2019-03-31T08:18:38.193Z,-87
2019-03-31T08:21:10.866Z,-87
2019-03-31T08:23:43.530Z,-87
2019-03-31T08:26:16.220Z,-85
2019-03-31T08:28:49.234Z,-87
2019-03-31T08:31:22.234Z,-87
2019-03-31T08:33:54.868Z,-87
2019-03-31T08:36:27.598Z,-87
2019-03-31T08:39:00.391Z,-87
2019-03-31T08:41:33.107Z,-87
2019-03-31T08:44:05.759Z,-88
2019-03-31T08:46:38.446Z,-85
2019-03-31T08:49:11.390Z,-85
2019-03-31T08:51:44.091Z,-86
2019-03-31T08:54:17.042Z,-85
2019-03-31T08:56:50.034Z,-85
2019-03-31T08:59:23.275Z,-85
2019-03-31T09:01:56.232Z,-86
2019-03-31T09:04:29.132Z,-86
2019-03-31T09:07:02.184Z,-86
2019-03-31T09:09:34.807Z,-86
2019-03-31T09:12:07.520Z,-86
2019-03-31T09:14:40.497Z,-86
2019-03-31T09:17:13.204Z,-86
2019-03-31T09:19:45.975Z,-85
2019-03-31T09:22:18.661Z,-86
2019-03-31T09:24:51.295Z,-86
2019-03-31T09:27:24.234Z,-87
2019-03-31T09:29:56.864Z,-85
2019-03-31T09:32:29.816Z,-85
2019-03-31T09:35:02.444Z,-85
2019-03-31T09:37:35.412Z,-85
2019-03-31T09:40:09.185Z,-85
2019-03-31T09:42:42.334Z,-85
2019-03-31T09:45:15.247Z,-85
2019-03-31T09:47:48.198Z,-85
2019-03-31T09:50:21.076Z,-85
2019-03-31T09:52:53.737Z,-86
2019-03-31T09:55:26.475Z,-85
2019-03-31T09:58:00.091Z,-85
2019-03-31T10:00:52.329Z,-85
2019-03-31T10:03:25.398Z,-85
2019-03-31T10:06:09.987Z,-85
2019-03-31T10:08:32.469Z,-84
2019-03-31T10:11:05.429Z,-85
2019-03-31T10:13:38.414Z,-85
2019-03-31T10:16:11.404Z,-85
2019-03-31T10:18:44.335Z,-85
2019-03-31T10:21:17.302Z,-85
2019-03-31T10:23:49.946Z,-85
2019-03-31T10:26:31.906Z,-85
2019-03-31T10:28:57.253Z,-85
2019-03-31T10:31:29.950Z,-84
2019-03-31T10:34:02.926Z,-85
2019-03-31T10:36:44.450Z,-85
2019-03-31T10:39:10.743Z,-84
2019-03-31T10:41:43.373Z,-85
2019-03-31T10:44:17.908Z,-85
2019-03-31T10:46:50.584Z,-85
2019-03-31T10:49:23.252Z,-85
2019-03-31T10:51:55.918Z,-84
2019-03-31T10:54:29.309Z,-84
2019-03-31T10:57:01.927Z,-84
2019-03-31T10:59:34.624Z,-85
2019-03-31T11:02:07.545Z,-85
2019-03-31T11:04:40.239Z,-86
2019-03-31T11:07:12.870Z,-85
2019-03-31T11:09:45.580Z,-85
2019-03-31T11:12:18.213Z,-86
2019-03-31T11:14:51.274Z,-85
2019-03-31T11:17:24.201Z,-86
2019-03-31T11:20:00.483Z,-85
2019-03-31T11:22:39.645Z,-84
2019-03-31T11:25:20.642Z,-85
2019-03-31T11:27:46.806Z,-84
2019-03-31T11:30:20.018Z,-86
2019-03-31T11:32:53.038Z,-86
2019-03-31T11:35:25.808Z,-86
2019-03-31T11:37:58.490Z,-86
2019-03-31T11:40:31.462Z,-86
2019-03-31T11:43:06.988Z,-85
2019-03-31T11:45:39.957Z,-85
2019-03-31T11:48:13.187Z,-85
2019-03-31T11:50:46.012Z,-87
2019-03-31T11:53:18.637Z,-86
2019-03-31T11:55:51.567Z,-87
2019-03-31T11:58:24.271Z,-84
2019-03-31T12:00:58.006Z,-84
2019-03-31T12:03:33.167Z,-85
2019-03-31T12:06:06.221Z,-84
2019-03-31T12:08:38.872Z,-84
2019-03-31T12:11:11.573Z,-84
2019-03-31T12:13:45.433Z,-84
2019-03-31T12:16:18.429Z,-86
2019-03-31T12:18:51.119Z,-87
2019-03-31T12:21:27.089Z,-85
2019-03-31T12:23:59.715Z,-85
2019-03-31T12:26:32.571Z,-85
2019-03-31T12:29:05.165Z,-85
2019-03-31T12:31:38.127Z,-86
2019-03-31T12:34:10.794Z,-86
2019-03-31T12:36:43.477Z,-86
2019-03-31T12:39:16.115Z,-86
2019-03-31T12:41:49.136Z,-83
2019-03-31T12:44:24.968Z,-81
2019-03-31T12:46:56.689Z,-79
2019-03-31T12:49:29.327Z,-80
2019-03-31T12:52:01.980Z,-80
2019-03-31T12:54:34.631Z,-80
2019-03-31T12:57:07.489Z,-80
2019-03-31T12:59:40.121Z,-80
2019-03-31T13:02:12.800Z,-80
2019-03-31T13:04:45.413Z,-80
2019-03-31T13:07:18.134Z,-80
2019-03-31T13:09:50.796Z,-80
2019-03-31T13:12:23.510Z,-81
2019-03-31T13:14:57.362Z,-81
2019-03-31T13:17:31.119Z,-80
2019-03-31T13:20:03.902Z,-80
2019-03-31T13:22:36.575Z,-80
2019-03-31T13:25:09.513Z,-80
2019-03-31T13:27:42.533Z,-80
2019-03-31T13:30:15.245Z,-81
2019-03-31T13:32:49.179Z,-81
2019-03-31T13:35:21.840Z,-81
2019-03-31T13:37:54.579Z,-81
2019-03-31T13:40:28.558Z,-81
2019-03-31T13:43:02.318Z,-81
2019-03-31T13:45:35.363Z,-80
2019-03-31T13:48:08.680Z,-81
2019-03-31T13:50:41.287Z,-80
2019-03-31T13:53:16.251Z,-80
2019-03-31T13:55:48.396Z,-80
2019-03-31T13:58:23.516Z,-80
2019-03-31T14:00:57.361Z,-80
2019-03-31T14:03:30.233Z,-79
2019-03-31T14:06:07.034Z,-80
2019-03-31T14:08:39.678Z,-79
2019-03-31T14:11:12.704Z,-80
2019-03-31T14:13:46.171Z,-80
2019-03-31T14:16:19.230Z,-80
2019-03-31T14:18:52.240Z,-80
2019-03-31T14:21:24.844Z,-80
2019-03-31T14:23:57.687Z,-80
2019-03-31T14:26:30.302Z,-80
2019-03-31T14:29:08.964Z,-80
2019-03-31T14:31:41.765Z,-80
2019-03-31T14:34:15.041Z,-80
2019-03-31T14:36:47.674Z,-80
2019-03-31T14:39:20.344Z,-80
2019-03-31T14:41:52.974Z,-80
2019-03-31T14:44:26.091Z,-80
2019-03-31T14:46:59.091Z,-80
2019-03-31T14:49:32.130Z,-82
2019-03-31T14:52:04.743Z,-81
2019-03-31T14:54:37.811Z,-81
2019-03-31T14:57:10.566Z,-82
2019-03-31T14:59:43.945Z,-81
2019-03-31T15:02:16.882Z,-83
2019-03-31T15:04:49.563Z,-82
2019-03-31T15:07:22.850Z,-82
2019-03-31T15:12:33.456Z,-81
2019-03-31T15:15:06.613Z,-81
2019-03-31T15:17:40.137Z,-82
2019-03-31T15:20:14.438Z,-82
2019-03-31T15:22:47.097Z,-82
2019-03-31T15:25:19.987Z,-82
2019-03-31T15:27:52.650Z,-81
2019-03-31T15:30:25.592Z,-82
2019-03-31T15:32:58.677Z,-82
2019-03-31T15:35:31.321Z,-81
2019-03-31T15:38:04.278Z,-80
2019-03-31T15:40:36.913Z,-81
2019-03-31T15:43:09.626Z,-80
2019-03-31T15:45:42.239Z,-81
2019-03-31T15:48:16.353Z,-81
2019-03-31T15:50:49.076Z,-81
2019-03-31T15:53:21.735Z,-80
2019-03-31T15:55:54.368Z,-81
2019-03-31T15:58:27.686Z,-82
2019-03-31T16:01:00.297Z,-80
2019-03-31T16:03:35.102Z,-81
2019-03-31T16:06:07.869Z,-83
2019-03-31T16:08:39.739Z,-82
2019-03-31T16:11:11.564Z,-80
2019-03-31T16:13:43.698Z,-84
2019-03-31T16:16:15.495Z,-80
2019-03-31T16:18:47.426Z,-81
2019-03-31T16:21:19.259Z,-78
2019-03-31T16:23:51.424Z,-81
2019-03-31T16:26:23.264Z,-82
2019-03-31T16:28:55.371Z,-80
2019-03-31T16:31:27.323Z,-81
2019-03-31T16:33:59.165Z,-81
2019-03-31T16:36:31.005Z,-81
2019-03-31T16:39:03.075Z,-82
2019-03-31T16:41:35.554Z,-80
2019-03-31T16:44:07.658Z,-80
2019-03-31T16:46:39.984Z,-80
2019-03-31T16:49:11.994Z,-81
2019-03-31T16:51:43.840Z,-82
2019-03-31T16:54:17.504Z,-82
2019-03-31T16:56:50.634Z,-80
2019-03-31T16:59:22.518Z,-81
2019-03-31T17:01:54.674Z,-79
2019-03-31T17:04:26.468Z,-80
2019-03-31T17:06:58.318Z,-79
2019-03-31T17:09:30.564Z,-79
2019-03-31T17:12:02.429Z,-80
2019-03-31T17:14:37.650Z,-79
2019-03-31T17:17:09.525Z,-82
2019-03-31T17:19:41.648Z,-80
2019-03-31T17:22:13.586Z,-82
2019-03-31T17:24:45.503Z,-81
2019-03-31T17:27:17.355Z,-79
2019-03-31T17:29:49.546Z,-80
2019-03-31T17:32:21.460Z,-81
2019-03-31T17:34:53.268Z,-81
2019-03-31T17:37:27.047Z,-81
2019-03-31T17:40:05.806Z,-80
2019-03-31T17:42:33.211Z,-82
2019-03-31T17:45:06.642Z,-82
2019-03-31T17:47:38.817Z,-79
2019-03-31T17:50:10.612Z,-81
2019-03-31T17:52:42.846Z,-82
2019-03-31T17:55:14.659Z,-82
2019-03-31T17:57:46.609Z,-81
2019-03-31T18:00:18.425Z,-80
2019-03-31T18:02:50.625Z,-79
2019-03-31T18:05:22.806Z,-80
2019-03-31T18:07:54.719Z,-82
2019-03-31T18:10:26.528Z,-82
2019-03-31T18:12:58.383Z,-80
2019-03-31T18:15:30.187Z,-80
2019-03-31T18:18:02.330Z,-80
2019-03-31T18:20:34.149Z,-81
2019-03-31T18:23:06.420Z,-85
2019-03-31T18:25:38.846Z,-87
2019-03-31T18:28:11.019Z,-85
2019-03-31T18:30:42.856Z,-86
2019-03-31T18:33:14.738Z,-87
2019-03-31T18:35:46.682Z,-90
2019-03-31T18:38:19.088Z,-89
2019-03-31T18:40:51.233Z,-85
2019-03-31T18:43:24.005Z,-85
2019-03-31T18:45:56.112Z,-86
2019-03-31T18:48:28.580Z,-86
2019-03-31T18:51:00.380Z,-84
2019-03-31T18:53:57.135Z,-83
2019-03-31T18:56:50.670Z,-86
2019-03-31T18:59:36.184Z,-84
2019-03-31T19:02:26.008Z,-87
2019-03-31T19:05:08.465Z,-86
2019-03-31T19:08:11.250Z,-85
2019-03-31T19:11:00.709Z,-86
2019-03-31T19:13:55.639Z,-84
2019-03-31T19:16:43.082Z,-83
2019-03-31T19:19:28.375Z,-82
2019-03-31T19:22:06.759Z,-84
2019-03-31T19:24:46.711Z,-84
2019-03-31T19:27:30.406Z,-84
2019-03-31T19:30:33.489Z,-85
2019-03-31T19:33:34.022Z,-84
2019-03-31T19:36:28.114Z,-85
2019-03-31T19:39:17.545Z,-84
2019-03-31T19:42:05.491Z,-84
2019-03-31T19:44:48.254Z,-84
2019-03-31T19:47:39.492Z,-85
2019-03-31T19:50:39.381Z,-85
2019-03-31T19:53:48.391Z,-86
2019-03-31T19:56:45.549Z,-87
2019-03-31T19:59:27.526Z,-87
2019-03-31T20:02:17.104Z,-85
2019-03-31T20:05:23.216Z,-87
2019-03-31T20:08:07.745Z,-85
2019-03-31T20:10:48.997Z,-85
2019-03-31T20:13:40.055Z,-85
2019-03-31T20:16:30.832Z,-85
2019-03-31T20:19:19.366Z,-85
2019-03-31T20:22:11.836Z,-87
2019-03-31T20:25:15.444Z,-85
2019-03-31T20:27:54.167Z,-84
2019-03-31T20:30:39.047Z,-83
2019-03-31T20:33:20.623Z,-84
2019-03-31T20:36:24.076Z,-83
2019-03-31T20:39:17.744Z,-84
2019-03-31T20:42:07.502Z,-83
2019-03-31T20:44:39.699Z,-84
2019-03-31T20:47:11.520Z,-84
2019-03-31T20:49:43.642Z,-83
2019-03-31T20:52:15.898Z,-85
2019-03-31T20:54:48.501Z,-84
2019-03-31T20:57:23.410Z,-82
2019-03-31T20:59:58.006Z,-84
2019-03-31T21:02:30.526Z,-85
2019-03-31T21:05:02.392Z,-84
2019-03-31T21:07:34.985Z,-83
2019-03-31T21:10:07.596Z,-85
2019-03-31T21:12:40.015Z,-82
2019-03-31T21:15:12.207Z,-84
2019-03-31T21:17:44.112Z,-84
2019-03-31T21:20:16.113Z,-84
2019-03-31T21:22:47.946Z,-84
2019-03-31T21:25:19.834Z,-84
2019-03-31T21:27:51.759Z,-84
2019-03-31T21:30:24.053Z,-84
2019-03-31T21:32:55.877Z,-84
2019-03-31T21:35:28.351Z,-84
2019-03-31T21:38:00.609Z,-84
2019-03-31T21:40:32.469Z,-84
2019-03-31T21:43:04.440Z,-84
2019-03-31T21:45:36.588Z,-83
2019-03-31T21:48:08.849Z,-83
2019-03-31T21:50:41.289Z,-84
2019-03-31T21:53:17.625Z,-84
2019-03-31T21:55:49.125Z,-83
2019-03-31T21:58:21.840Z,-83
2019-03-31T22:00:57.040Z,-83
2019-03-31T22:03:29.151Z,-82
2019-03-31T22:06:01.343Z,-82
2019-03-31T22:08:33.743Z,-83
2019-03-31T22:11:05.677Z,-83
2019-03-31T22:13:37.939Z,-83
2019-03-31T22:16:09.884Z,-85
2019-03-31T22:18:42.098Z,-84
2019-03-31T22:21:14.283Z,-82
2019-03-31T22:23:57.433Z,-83
2019-03-31T22:26:20.023Z,-84
2019-03-31T22:28:52.163Z,-83
2019-03-31T22:31:24.023Z,-84
2019-03-31T22:33:55.850Z,-83
2019-03-31T22:36:28.049Z,-83
2019-03-31T22:39:00.378Z,-82
2019-03-31T22:41:32.238Z,-82
2019-03-31T22:44:05.852Z,-83
2019-03-31T22:46:37.992Z,-84
2019-03-31T22:49:10.450Z,-85
2019-03-31T22:51:42.727Z,-83
2019-03-31T22:54:14.573Z,-83
2019-03-31T22:56:46.418Z,-83
2019-03-31T22:59:18.275Z,-83
2019-03-31T23:01:50.137Z,-83
2019-03-31T23:04:22.239Z,-84
2019-03-31T23:06:54.097Z,-83
2019-03-31T23:09:26.249Z,-83
2019-03-31T23:11:58.081Z,-82
2019-03-31T23:14:30.198Z,-83
2019-03-31T23:17:02.144Z,-83
2019-03-31T23:19:33.982Z,-83
2019-03-31T23:22:07.601Z,-82
2019-03-31T23:24:40.183Z,-83
2019-03-31T23:27:12.578Z,-83
2019-03-31T23:29:44.433Z,-82
2019-03-31T23:32:16.246Z,-83
2019-03-31T23:34:48.111Z,-83
2019-03-31T23:37:20.184Z,-82
2019-03-31T23:39:52.067Z,-83
2019-03-31T23:42:23.922Z,-84
2019-03-31T23:44:56.211Z,-83
2019-03-31T23:47:28.421Z,-83
2019-03-31T23:50:00.539Z,-83
2019-03-31T23:52:32.657Z,-83
2019-03-31T23:55:04.607Z,-83
2019-03-31T23:57:39.862Z,-83
